sensor_id;sensor_type;location;lat;lon;timestamp;temperature;humidity
16966;DHT22;8599;47.852;12.070;2023-11-19T00:02:25;5.50;99.90
16966;DHT22;8599;47.852;12.070;2023-11-19T00:04:52;5.50;99.90
16966;DHT22;8599;47.852;12.070;2023-11-19T00:07:19;5.50;99.90
16966;DHT22;8599;47.852;12.070;2023-11-19T00:09:46;5.40;99.90
16966;DHT22;8599;47.852;12.070;2023-11-19T00:12:15;5.40;99.90
16966;DHT22;8599;47.852;12.070;2023-11-19T00:14:41;5.50;99.90
16966;DHT22;8599;47.852;12.070;2023-11-19T00:17:09;5.50;99.90
16966;DHT22;8599;47.852;12.070;2023-11-19T00:19:36;5.50;99.90
16966;DHT22;8599;47.852;12.070;2023-11-19T00:22:03;5.50;99.90
16966;DHT22;8599;47.852;12.070;2023-11-19T00:24:30;5.50;99.90
16966;DHT22;8599;47.852;12.070;2023-11-19T00:26:57;5.50;99.90
16966;DHT22;8599;47.852;12.070;2023-11-19T00:29:25;5.50;99.90
16966;DHT22;8599;47.852;12.070;2023-11-19T00:31:52;5.50;99.90
16966;DHT22;8599;47.852;12.070;2023-11-19T00:34:19;5.50;99.90
16966;DHT22;8599;47.852;12.070;2023-11-19T00:36:48;5.60;99.90
16966;DHT22;8599;47.852;12.070;2023-11-19T00:39:14;5.60;99.90
16966;DHT22;8599;47.852;12.070;2023-11-19T00:41:41;5.50;99.90
16966;DHT22;8599;47.852;12.070;2023-11-19T00:44:08;5.50;99.90
16966;DHT22;8599;47.852;12.070;2023-11-19T00:46:37;5.60;99.90
16966;DHT22;8599;47.852;12.070;2023-11-19T00:49:03;5.60;99.90
16966;DHT22;8599;47.852;12.070;2023-11-19T00:51:30;5.50;99.90
16966;DHT22;8599;47.852;12.070;2023-11-19T00:53:58;5.50;99.90
16966;DHT22;8599;47.852;12.070;2023-11-19T00:56:26;5.60;99.90
16966;DHT22;8599;47.852;12.070;2023-11-19T00:58:53;5.50;99.90
16966;DHT22;8599;47.852;12.070;2023-11-19T01:01:21;5.60;99.90
16966;DHT22;8599;47.852;12.070;2023-11-19T01:03:49;5.70;99.90
16966;DHT22;8599;47.852;12.070;2023-11-19T01:06:26;5.70;99.90
16966;DHT22;8599;47.852;12.070;2023-11-19T01:08:54;5.60;99.90
16966;DHT22;8599;47.852;12.070;2023-11-19T01:11:22;5.60;99.90
16966;DHT22;8599;47.852;12.070;2023-11-19T01:13:49;5.60;99.90
16966;DHT22;8599;47.852;12.070;2023-11-19T01:16:17;5.60;99.90
16966;DHT22;8599;47.852;12.070;2023-11-19T01:18:44;5.60;99.90
16966;DHT22;8599;47.852;12.070;2023-11-19T01:21:13;5.60;99.90
16966;DHT22;8599;47.852;12.070;2023-11-19T01:23:41;5.70;99.90
16966;DHT22;8599;47.852;12.070;2023-11-19T01:26:08;5.80;99.90
16966;DHT22;8599;47.852;12.070;2023-11-19T01:28:37;5.80;99.90
16966;DHT22;8599;47.852;12.070;2023-11-19T01:31:07;5.90;99.90
16966;DHT22;8599;47.852;12.070;2023-11-19T01:33:35;5.90;99.90
16966;DHT22;8599;47.852;12.070;2023-11-19T01:36:02;6.00;99.90
16966;DHT22;8599;47.852;12.070;2023-11-19T01:38:31;6.00;99.90
16966;DHT22;8599;47.852;12.070;2023-11-19T01:40:58;5.90;99.90
16966;DHT22;8599;47.852;12.070;2023-11-19T01:43:34;6.00;99.90
16966;DHT22;8599;47.852;12.070;2023-11-19T01:46:00;6.00;99.90
16966;DHT22;8599;47.852;12.070;2023-11-19T01:48:27;5.90;99.90
16966;DHT22;8599;47.852;12.070;2023-11-19T01:50:55;5.80;99.90
16966;DHT22;8599;47.852;12.070;2023-11-19T01:53:23;5.80;99.90
16966;DHT22;8599;47.852;12.070;2023-11-19T01:55:52;5.80;99.90
16966;DHT22;8599;47.852;12.070;2023-11-19T01:58:19;5.80;99.90
16966;DHT22;8599;47.852;12.070;2023-11-19T02:00:46;5.80;99.90
16966;DHT22;8599;47.852;12.070;2023-11-19T02:03:14;5.90;99.90
16966;DHT22;8599;47.852;12.070;2023-11-19T02:05:41;5.90;99.90
16966;DHT22;8599;47.852;12.070;2023-11-19T02:08:08;5.80;99.90
16966;DHT22;8599;47.852;12.070;2023-11-19T02:10:35;5.90;99.90
16966;DHT22;8599;47.852;12.070;2023-11-19T02:13:04;5.90;99.90
16966;DHT22;8599;47.852;12.070;2023-11-19T02:15:32;5.90;99.90
16966;DHT22;8599;47.852;12.070;2023-11-19T02:18:20;5.80;99.90
16966;DHT22;8599;47.852;12.070;2023-11-19T02:20:48;5.80;99.90
16966;DHT22;8599;47.852;12.070;2023-11-19T02:23:15;5.80;99.90
16966;DHT22;8599;47.852;12.070;2023-11-19T02:25:43;5.80;99.90
16966;DHT22;8599;47.852;12.070;2023-11-19T02:28:17;5.80;99.90
16966;DHT22;8599;47.852;12.070;2023-11-19T02:30:44;5.80;99.90
16966;DHT22;8599;47.852;12.070;2023-11-19T02:33:10;5.80;99.90
16966;DHT22;8599;47.852;12.070;2023-11-19T02:35:38;5.80;99.90
16966;DHT22;8599;47.852;12.070;2023-11-19T02:38:06;5.90;99.90
16966;DHT22;8599;47.852;12.070;2023-11-19T02:40:33;6.00;99.90
16966;DHT22;8599;47.852;12.070;2023-11-19T02:43:00;6.00;99.90
16966;DHT22;8599;47.852;12.070;2023-11-19T02:45:31;6.10;99.90
16966;DHT22;8599;47.852;12.070;2023-11-19T02:47:58;5.90;99.90
16966;DHT22;8599;47.852;12.070;2023-11-19T02:50:27;6.00;99.90
16966;DHT22;8599;47.852;12.070;2023-11-19T02:52:55;6.00;99.90
16966;DHT22;8599;47.852;12.070;2023-11-19T02:55:22;6.00;99.90
16966;DHT22;8599;47.852;12.070;2023-11-19T02:57:50;5.90;99.90
16966;DHT22;8599;47.852;12.070;2023-11-19T03:00:19;5.90;99.90
16966;DHT22;8599;47.852;12.070;2023-11-19T03:02:51;5.90;99.90
16966;DHT22;8599;47.852;12.070;2023-11-19T03:05:25;5.90;99.90
16966;DHT22;8599;47.852;12.070;2023-11-19T03:07:52;6.00;99.90
16966;DHT22;8599;47.852;12.070;2023-11-19T03:10:19;6.00;99.90
16966;DHT22;8599;47.852;12.070;2023-11-19T03:12:45;6.00;99.90
16966;DHT22;8599;47.852;12.070;2023-11-19T03:15:12;6.00;99.90
16966;DHT22;8599;47.852;12.070;2023-11-19T03:17:40;6.00;99.90
16966;DHT22;8599;47.852;12.070;2023-11-19T03:20:10;6.00;99.90
16966;DHT22;8599;47.852;12.070;2023-11-19T03:22:40;6.00;99.90
16966;DHT22;8599;47.852;12.070;2023-11-19T03:25:08;6.00;99.90
16966;DHT22;8599;47.852;12.070;2023-11-19T03:27:35;6.00;99.90
16966;DHT22;8599;47.852;12.070;2023-11-19T03:30:02;6.00;99.90
16966;DHT22;8599;47.852;12.070;2023-11-19T03:32:30;6.00;99.90
16966;DHT22;8599;47.852;12.070;2023-11-19T03:34:57;6.00;99.90
16966;DHT22;8599;47.852;12.070;2023-11-19T03:37:26;6.10;99.90
16966;DHT22;8599;47.852;12.070;2023-11-19T03:39:53;6.30;99.90
16966;DHT22;8599;47.852;12.070;2023-11-19T03:42:20;6.20;99.90
16966;DHT22;8599;47.852;12.070;2023-11-19T03:44:48;6.20;99.90
16966;DHT22;8599;47.852;12.070;2023-11-19T03:47:16;6.30;99.90
16966;DHT22;8599;47.852;12.070;2023-11-19T03:49:42;6.40;99.90
16966;DHT22;8599;47.852;12.070;2023-11-19T03:52:14;6.40;99.90
16966;DHT22;8599;47.852;12.070;2023-11-19T03:54:42;6.40;99.90
16966;DHT22;8599;47.852;12.070;2023-11-19T03:57:09;6.40;99.90
16966;DHT22;8599;47.852;12.070;2023-11-19T03:59:36;6.40;99.90
16966;DHT22;8599;47.852;12.070;2023-11-19T04:02:03;6.40;99.90
16966;DHT22;8599;47.852;12.070;2023-11-19T04:04:30;6.50;99.90
16966;DHT22;8599;47.852;12.070;2023-11-19T04:06:56;6.50;99.90
16966;DHT22;8599;47.852;12.070;2023-11-19T04:09:24;6.50;99.90
16966;DHT22;8599;47.852;12.070;2023-11-19T04:11:52;6.50;99.90
16966;DHT22;8599;47.852;12.070;2023-11-19T04:14:19;6.50;99.90
16966;DHT22;8599;47.852;12.070;2023-11-19T04:16:45;6.50;99.90
16966;DHT22;8599;47.852;12.070;2023-11-19T04:19:13;6.40;99.90
16966;DHT22;8599;47.852;12.070;2023-11-19T04:21:40;6.40;99.90
16966;DHT22;8599;47.852;12.070;2023-11-19T04:24:08;6.40;99.90
16966;DHT22;8599;47.852;12.070;2023-11-19T04:26:40;6.40;99.90
16966;DHT22;8599;47.852;12.070;2023-11-19T04:29:09;6.50;99.90
16966;DHT22;8599;47.852;12.070;2023-11-19T04:31:36;6.40;99.90
16966;DHT22;8599;47.852;12.070;2023-11-19T04:34:03;6.40;99.90
16966;DHT22;8599;47.852;12.070;2023-11-19T04:36:32;6.30;99.90
16966;DHT22;8599;47.852;12.070;2023-11-19T04:38:59;6.30;99.90
16966;DHT22;8599;47.852;12.070;2023-11-19T04:41:26;6.30;99.90
16966;DHT22;8599;47.852;12.070;2023-11-19T04:43:53;6.40;99.90
16966;DHT22;8599;47.852;12.070;2023-11-19T04:46:21;6.40;99.90
16966;DHT22;8599;47.852;12.070;2023-11-19T04:48:49;6.30;99.90
16966;DHT22;8599;47.852;12.070;2023-11-19T04:51:16;6.30;99.90
16966;DHT22;8599;47.852;12.070;2023-11-19T04:53:43;6.30;99.90
16966;DHT22;8599;47.852;12.070;2023-11-19T04:56:10;6.30;99.90
16966;DHT22;8599;47.852;12.070;2023-11-19T04:58:39;6.30;99.90
16966;DHT22;8599;47.852;12.070;2023-11-19T05:01:06;6.30;99.90
16966;DHT22;8599;47.852;12.070;2023-11-19T05:03:34;6.30;99.90
16966;DHT22;8599;47.852;12.070;2023-11-19T05:06:01;6.30;99.90
16966;DHT22;8599;47.852;12.070;2023-11-19T05:08:28;6.30;99.90
16966;DHT22;8599;47.852;12.070;2023-11-19T05:10:55;6.30;99.90
16966;DHT22;8599;47.852;12.070;2023-11-19T05:13:23;6.30;99.90
16966;DHT22;8599;47.852;12.070;2023-11-19T05:15:50;6.40;99.90
16966;DHT22;8599;47.852;12.070;2023-11-19T05:18:16;6.40;99.90
16966;DHT22;8599;47.852;12.070;2023-11-19T05:20:45;6.40;99.90
16966;DHT22;8599;47.852;12.070;2023-11-19T05:23:12;6.50;99.90
16966;DHT22;8599;47.852;12.070;2023-11-19T05:25:39;6.50;99.90
16966;DHT22;8599;47.852;12.070;2023-11-19T05:28:06;6.50;99.90
16966;DHT22;8599;47.852;12.070;2023-11-19T05:30:33;6.50;99.90
16966;DHT22;8599;47.852;12.070;2023-11-19T05:33:00;6.50;99.90
16966;DHT22;8599;47.852;12.070;2023-11-19T05:35:27;6.50;99.90
16966;DHT22;8599;47.852;12.070;2023-11-19T05:37:55;6.60;99.90
16966;DHT22;8599;47.852;12.070;2023-11-19T05:40:22;6.60;99.90
16966;DHT22;8599;47.852;12.070;2023-11-19T05:42:49;6.60;99.90
16966;DHT22;8599;47.852;12.070;2023-11-19T05:45:16;6.60;99.90
16966;DHT22;8599;47.852;12.070;2023-11-19T05:47:42;6.60;99.90
16966;DHT22;8599;47.852;12.070;2023-11-19T05:50:10;6.70;99.90
16966;DHT22;8599;47.852;12.070;2023-11-19T05:52:37;6.70;99.90
16966;DHT22;8599;47.852;12.070;2023-11-19T05:55:06;6.70;99.90
16966;DHT22;8599;47.852;12.070;2023-11-19T05:57:35;6.70;99.90
16966;DHT22;8599;47.852;12.070;2023-11-19T06:00:02;6.70;99.90
16966;DHT22;8599;47.852;12.070;2023-11-19T06:02:32;6.80;99.90
16966;DHT22;8599;47.852;12.070;2023-11-19T06:04:59;6.80;99.90
16966;DHT22;8599;47.852;12.070;2023-11-19T06:07:26;6.80;99.90
16966;DHT22;8599;47.852;12.070;2023-11-19T06:09:53;6.80;99.90
16966;DHT22;8599;47.852;12.070;2023-11-19T06:12:21;6.80;99.90
16966;DHT22;8599;47.852;12.070;2023-11-19T06:14:48;6.80;99.90
16966;DHT22;8599;47.852;12.070;2023-11-19T06:17:15;6.80;99.90
16966;DHT22;8599;47.852;12.070;2023-11-19T06:19:42;6.80;99.90
16966;DHT22;8599;47.852;12.070;2023-11-19T06:22:10;6.80;99.90
16966;DHT22;8599;47.852;12.070;2023-11-19T06:24:37;6.80;99.90
16966;DHT22;8599;47.852;12.070;2023-11-19T06:27:04;6.80;99.90
16966;DHT22;8599;47.852;12.070;2023-11-19T06:29:32;6.80;99.90
16966;DHT22;8599;47.852;12.070;2023-11-19T06:31:59;6.80;99.90
16966;DHT22;8599;47.852;12.070;2023-11-19T06:34:26;6.80;99.90
16966;DHT22;8599;47.852;12.070;2023-11-19T06:36:53;6.80;99.90
16966;DHT22;8599;47.852;12.070;2023-11-19T06:39:19;6.80;99.90
16966;DHT22;8599;47.852;12.070;2023-11-19T06:41:47;6.80;99.90
16966;DHT22;8599;47.852;12.070;2023-11-19T06:44:14;6.80;99.90
16966;DHT22;8599;47.852;12.070;2023-11-19T06:46:42;6.80;99.90
16966;DHT22;8599;47.852;12.070;2023-11-19T06:49:09;6.80;99.90
16966;DHT22;8599;47.852;12.070;2023-11-19T06:51:41;6.80;99.90
16966;DHT22;8599;47.852;12.070;2023-11-19T06:54:08;6.90;99.90
16966;DHT22;8599;47.852;12.070;2023-11-19T06:56:35;6.90;99.90
16966;DHT22;8599;47.852;12.070;2023-11-19T06:59:02;6.90;99.90
16966;DHT22;8599;47.852;12.070;2023-11-19T07:01:34;6.90;99.90
16966;DHT22;8599;47.852;12.070;2023-11-19T07:04:03;6.90;99.90
16966;DHT22;8599;47.852;12.070;2023-11-19T07:06:34;7.00;99.90
16966;DHT22;8599;47.852;12.070;2023-11-19T07:09:02;7.00;99.90
16966;DHT22;8599;47.852;12.070;2023-11-19T07:11:35;7.10;99.90
16966;DHT22;8599;47.852;12.070;2023-11-19T07:14:02;7.10;99.90
16966;DHT22;8599;47.852;12.070;2023-11-19T07:16:29;7.10;99.90
16966;DHT22;8599;47.852;12.070;2023-11-19T07:18:56;7.10;99.90
16966;DHT22;8599;47.852;12.070;2023-11-19T07:21:25;7.10;99.90
16966;DHT22;8599;47.852;12.070;2023-11-19T07:23:53;7.10;99.90
16966;DHT22;8599;47.852;12.070;2023-11-19T07:26:20;7.20;99.90
16966;DHT22;8599;47.852;12.070;2023-11-19T07:28:48;7.10;99.90
16966;DHT22;8599;47.852;12.070;2023-11-19T07:31:14;7.20;99.90
16966;DHT22;8599;47.852;12.070;2023-11-19T07:33:41;7.20;99.90
16966;DHT22;8599;47.852;12.070;2023-11-19T07:36:09;7.30;99.90
16966;DHT22;8599;47.852;12.070;2023-11-19T07:38:38;7.30;99.90
16966;DHT22;8599;47.852;12.070;2023-11-19T07:41:05;7.40;99.90
16966;DHT22;8599;47.852;12.070;2023-11-19T07:43:32;7.40;99.90
16966;DHT22;8599;47.852;12.070;2023-11-19T07:45:59;7.40;99.90
16966;DHT22;8599;47.852;12.070;2023-11-19T07:48:26;7.30;99.90
16966;DHT22;8599;47.852;12.070;2023-11-19T07:50:53;7.30;99.90
16966;DHT22;8599;47.852;12.070;2023-11-19T07:53:20;7.30;99.90
16966;DHT22;8599;47.852;12.070;2023-11-19T07:55:48;7.30;99.90
16966;DHT22;8599;47.852;12.070;2023-11-19T07:58:15;7.30;99.90
16966;DHT22;8599;47.852;12.070;2023-11-19T08:00:42;7.30;99.90
16966;DHT22;8599;47.852;12.070;2023-11-19T08:03:09;7.30;99.90
16966;DHT22;8599;47.852;12.070;2023-11-19T08:05:36;7.40;99.90
16966;DHT22;8599;47.852;12.070;2023-11-19T08:08:03;7.40;99.90
16966;DHT22;8599;47.852;12.070;2023-11-19T08:10:30;7.40;99.90
16966;DHT22;8599;47.852;12.070;2023-11-19T08:13:00;7.50;99.90
16966;DHT22;8599;47.852;12.070;2023-11-19T08:15:27;7.50;99.90
16966;DHT22;8599;47.852;12.070;2023-11-19T08:17:53;7.60;99.90
16966;DHT22;8599;47.852;12.070;2023-11-19T08:20:20;7.70;99.90
16966;DHT22;8599;47.852;12.070;2023-11-19T08:22:47;7.70;99.90
16966;DHT22;8599;47.852;12.070;2023-11-19T08:25:14;7.70;99.90
16966;DHT22;8599;47.852;12.070;2023-11-19T08:27:41;7.80;99.90
16966;DHT22;8599;47.852;12.070;2023-11-19T08:30:10;7.90;99.90
16966;DHT22;8599;47.852;12.070;2023-11-19T08:32:37;7.90;99.90
16966;DHT22;8599;47.852;12.070;2023-11-19T08:35:05;7.90;99.90
16966;DHT22;8599;47.852;12.070;2023-11-19T08:37:32;7.90;99.90
16966;DHT22;8599;47.852;12.070;2023-11-19T08:39:58;7.90;99.90
16966;DHT22;8599;47.852;12.070;2023-11-19T08:42:26;8.00;99.90
16966;DHT22;8599;47.852;12.070;2023-11-19T08:44:53;8.10;99.90
16966;DHT22;8599;47.852;12.070;2023-11-19T08:47:21;8.20;99.90
16966;DHT22;8599;47.852;12.070;2023-11-19T08:49:50;8.60;99.90
16966;DHT22;8599;47.852;12.070;2023-11-19T08:52:18;8.70;99.90
16966;DHT22;8599;47.852;12.070;2023-11-19T08:54:45;8.60;99.90
16966;DHT22;8599;47.852;12.070;2023-11-19T08:57:11;8.50;99.90
16966;DHT22;8599;47.852;12.070;2023-11-19T08:59:38;8.40;99.90
16966;DHT22;8599;47.852;12.070;2023-11-19T09:02:05;8.30;99.90
16966;DHT22;8599;47.852;12.070;2023-11-19T09:04:33;8.30;99.90
16966;DHT22;8599;47.852;12.070;2023-11-19T09:07:01;8.20;99.90
16966;DHT22;8599;47.852;12.070;2023-11-19T09:09:28;8.30;99.90
16966;DHT22;8599;47.852;12.070;2023-11-19T09:11:55;8.20;99.90
16966;DHT22;8599;47.852;12.070;2023-11-19T09:14:22;8.20;99.90
16966;DHT22;8599;47.852;12.070;2023-11-19T09:16:51;8.20;99.90
16966;DHT22;8599;47.852;12.070;2023-11-19T09:19:18;8.20;99.90
16966;DHT22;8599;47.852;12.070;2023-11-19T09:21:46;8.20;99.90
16966;DHT22;8599;47.852;12.070;2023-11-19T09:24:14;8.20;99.90
16966;DHT22;8599;47.852;12.070;2023-11-19T09:26:41;8.20;99.90
16966;DHT22;8599;47.852;12.070;2023-11-19T09:29:08;8.20;99.90
16966;DHT22;8599;47.852;12.070;2023-11-19T09:31:35;8.20;99.90
16966;DHT22;8599;47.852;12.070;2023-11-19T09:34:04;8.30;99.90
16966;DHT22;8599;47.852;12.070;2023-11-19T09:36:31;8.40;99.90
16966;DHT22;8599;47.852;12.070;2023-11-19T09:38:59;8.40;99.90
16966;DHT22;8599;47.852;12.070;2023-11-19T09:41:27;8.50;99.90
16966;DHT22;8599;47.852;12.070;2023-11-19T09:43:54;8.50;99.90
16966;DHT22;8599;47.852;12.070;2023-11-19T09:46:22;8.50;99.90
16966;DHT22;8599;47.852;12.070;2023-11-19T09:48:52;8.70;99.90
16966;DHT22;8599;47.852;12.070;2023-11-19T09:51:20;8.80;99.90
16966;DHT22;8599;47.852;12.070;2023-11-19T09:53:47;8.80;99.90
16966;DHT22;8599;47.852;12.070;2023-11-19T09:56:16;8.80;99.90
16966;DHT22;8599;47.852;12.070;2023-11-19T09:58:43;8.90;99.90
16966;DHT22;8599;47.852;12.070;2023-11-19T10:01:10;8.90;99.90
16966;DHT22;8599;47.852;12.070;2023-11-19T10:03:39;8.90;99.90
16966;DHT22;8599;47.852;12.070;2023-11-19T10:06:09;8.90;99.90
16966;DHT22;8599;47.852;12.070;2023-11-19T10:08:37;8.90;99.90
16966;DHT22;8599;47.852;12.070;2023-11-19T10:11:05;8.90;99.90
16966;DHT22;8599;47.852;12.070;2023-11-19T10:13:35;9.00;99.90
16966;DHT22;8599;47.852;12.070;2023-11-19T10:16:06;9.00;99.90
16966;DHT22;8599;47.852;12.070;2023-11-19T10:18:34;9.10;99.90
16966;DHT22;8599;47.852;12.070;2023-11-19T10:21:04;9.10;99.90
16966;DHT22;8599;47.852;12.070;2023-11-19T10:23:31;9.20;99.90
16966;DHT22;8599;47.852;12.070;2023-11-19T10:26:03;9.30;99.90
16966;DHT22;8599;47.852;12.070;2023-11-19T10:28:39;9.30;99.90
16966;DHT22;8599;47.852;12.070;2023-11-19T10:31:08;9.40;99.90
16966;DHT22;8599;47.852;12.070;2023-11-19T10:33:35;9.40;99.90
16966;DHT22;8599;47.852;12.070;2023-11-19T10:36:02;9.60;99.90
16966;DHT22;8599;47.852;12.070;2023-11-19T10:38:29;9.60;99.90
16966;DHT22;8599;47.852;12.070;2023-11-19T10:40:57;9.70;99.90
16966;DHT22;8599;47.852;12.070;2023-11-19T10:43:24;9.70;99.90
16966;DHT22;8599;47.852;12.070;2023-11-19T10:45:52;9.80;99.90
16966;DHT22;8599;47.852;12.070;2023-11-19T10:48:19;9.90;99.90
16966;DHT22;8599;47.852;12.070;2023-11-19T10:50:51;10.00;99.90
16966;DHT22;8599;47.852;12.070;2023-11-19T10:53:20;10.20;99.90
16966;DHT22;8599;47.852;12.070;2023-11-19T10:55:48;10.20;99.90
16966;DHT22;8599;47.852;12.070;2023-11-19T10:58:16;10.20;99.90
16966;DHT22;8599;47.852;12.070;2023-11-19T11:00:44;10.40;99.90
16966;DHT22;8599;47.852;12.070;2023-11-19T11:03:17;10.50;99.90
16966;DHT22;8599;47.852;12.070;2023-11-19T11:05:46;10.60;99.90
16966;DHT22;8599;47.852;12.070;2023-11-19T11:08:14;10.90;99.90
16966;DHT22;8599;47.852;12.070;2023-11-19T11:10:44;11.20;99.90
16966;DHT22;8599;47.852;12.070;2023-11-19T11:13:11;11.60;99.90
16966;DHT22;8599;47.852;12.070;2023-11-19T11:15:40;11.80;99.90
16966;DHT22;8599;47.852;12.070;2023-11-19T11:18:09;12.00;99.90
16966;DHT22;8599;47.852;12.070;2023-11-19T11:20:37;12.40;99.90
16966;DHT22;8599;47.852;12.070;2023-11-19T11:23:25;12.80;99.90
16966;DHT22;8599;47.852;12.070;2023-11-19T11:26:04;12.90;99.90
16966;DHT22;8599;47.852;12.070;2023-11-19T11:28:41;13.00;99.90
16966;DHT22;8599;47.852;12.070;2023-11-19T11:31:19;13.30;99.90
16966;DHT22;8599;47.852;12.070;2023-11-19T11:34:07;13.40;99.90
16966;DHT22;8599;47.852;12.070;2023-11-19T11:36:44;13.50;99.90
16966;DHT22;8599;47.852;12.070;2023-11-19T11:39:13;13.50;99.90
16966;DHT22;8599;47.852;12.070;2023-11-19T11:41:40;13.60;99.90
16966;DHT22;8599;47.852;12.070;2023-11-19T11:44:08;13.80;99.90
16966;DHT22;8599;47.852;12.070;2023-11-19T11:46:55;13.80;99.90
16966;DHT22;8599;47.852;12.070;2023-11-19T11:49:27;13.80;99.90
16966;DHT22;8599;47.852;12.070;2023-11-19T11:52:00;13.90;99.90
16966;DHT22;8599;47.852;12.070;2023-11-19T11:54:29;13.90;99.90
16966;DHT22;8599;47.852;12.070;2023-11-19T11:57:06;14.00;99.90
16966;DHT22;8599;47.852;12.070;2023-11-19T11:59:42;14.20;99.90
16966;DHT22;8599;47.852;12.070;2023-11-19T12:02:11;14.10;99.90
16966;DHT22;8599;47.852;12.070;2023-11-19T12:04:39;14.30;99.90
16966;DHT22;8599;47.852;12.070;2023-11-19T12:07:12;14.50;99.90
16966;DHT22;8599;47.852;12.070;2023-11-19T12:09:40;14.50;99.90
16966;DHT22;8599;47.852;12.070;2023-11-19T12:12:17;14.60;99.90
16966;DHT22;8599;47.852;12.070;2023-11-19T12:15:04;14.60;99.90
16966;DHT22;8599;47.852;12.070;2023-11-19T12:17:41;14.60;99.90
16966;DHT22;8599;47.852;12.070;2023-11-19T12:20:10;14.70;99.90
16966;DHT22;8599;47.852;12.070;2023-11-19T12:22:39;14.80;99.90
16966;DHT22;8599;47.852;12.070;2023-11-19T12:25:07;14.70;99.90
16966;DHT22;8599;47.852;12.070;2023-11-19T12:27:34;14.80;99.90
16966;DHT22;8599;47.852;12.070;2023-11-19T12:30:01;14.80;99.90
16966;DHT22;8599;47.852;12.070;2023-11-19T12:32:37;14.80;99.90
16966;DHT22;8599;47.852;12.070;2023-11-19T12:35:05;14.90;99.90
16966;DHT22;8599;47.852;12.070;2023-11-19T12:37:33;15.00;99.90
16966;DHT22;8599;47.852;12.070;2023-11-19T12:40:02;15.40;99.90
16966;DHT22;8599;47.852;12.070;2023-11-19T12:42:37;15.80;99.90
16966;DHT22;8599;47.852;12.070;2023-11-19T12:45:05;15.90;99.90
16966;DHT22;8599;47.852;12.070;2023-11-19T12:47:32;15.90;99.90
16966;DHT22;8599;47.852;12.070;2023-11-19T12:49:58;16.00;99.90
16966;DHT22;8599;47.852;12.070;2023-11-19T12:52:25;16.00;99.90
16966;DHT22;8599;47.852;12.070;2023-11-19T12:54:53;16.20;99.90
16966;DHT22;8599;47.852;12.070;2023-11-19T12:57:21;16.30;99.90
16966;DHT22;8599;47.852;12.070;2023-11-19T13:00:01;16.40;99.90
16966;DHT22;8599;47.852;12.070;2023-11-19T13:02:44;16.30;99.90
16966;DHT22;8599;47.852;12.070;2023-11-19T13:05:23;16.00;99.90
16966;DHT22;8599;47.852;12.070;2023-11-19T13:07:51;16.00;99.90
16966;DHT22;8599;47.852;12.070;2023-11-19T13:10:24;16.00;99.90
16966;DHT22;8599;47.852;12.070;2023-11-19T13:13:04;16.00;99.90
16966;DHT22;8599;47.852;12.070;2023-11-19T13:15:32;15.80;99.90
16966;DHT22;8599;47.852;12.070;2023-11-19T13:17:59;15.60;99.90
16966;DHT22;8599;47.852;12.070;2023-11-19T13:20:26;15.50;99.90
16966;DHT22;8599;47.852;12.070;2023-11-19T13:22:57;15.50;99.90
16966;DHT22;8599;47.852;12.070;2023-11-19T13:25:24;15.50;99.90
16966;DHT22;8599;47.852;12.070;2023-11-19T13:27:51;15.40;99.90
16966;DHT22;8599;47.852;12.070;2023-11-19T13:30:20;15.30;99.90
16966;DHT22;8599;47.852;12.070;2023-11-19T13:32:47;15.30;99.90
16966;DHT22;8599;47.852;12.070;2023-11-19T13:35:15;15.30;99.90
16966;DHT22;8599;47.852;12.070;2023-11-19T13:37:42;15.10;99.90
16966;DHT22;8599;47.852;12.070;2023-11-19T13:40:10;14.80;99.90
16966;DHT22;8599;47.852;12.070;2023-11-19T13:42:39;14.80;99.90
16966;DHT22;8599;47.852;12.070;2023-11-19T13:45:08;14.80;99.90
16966;DHT22;8599;47.852;12.070;2023-11-19T13:47:39;14.80;99.90
16966;DHT22;8599;47.852;12.070;2023-11-19T13:50:08;14.60;99.90
16966;DHT22;8599;47.852;12.070;2023-11-19T13:52:35;14.50;99.90
16966;DHT22;8599;47.852;12.070;2023-11-19T13:55:04;14.60;99.90
16966;DHT22;8599;47.852;12.070;2023-11-19T13:57:31;14.50;99.90
16966;DHT22;8599;47.852;12.070;2023-11-19T13:59:59;14.40;99.90
16966;DHT22;8599;47.852;12.070;2023-11-19T14:02:26;14.40;99.90
16966;DHT22;8599;47.852;12.070;2023-11-19T14:04:54;14.40;99.90
16966;DHT22;8599;47.852;12.070;2023-11-19T14:07:21;14.30;99.90
16966;DHT22;8599;47.852;12.070;2023-11-19T14:09:48;14.40;99.90
16966;DHT22;8599;47.852;12.070;2023-11-19T14:12:15;14.30;99.90
16966;DHT22;8599;47.852;12.070;2023-11-19T14:14:43;14.20;99.90
16966;DHT22;8599;47.852;12.070;2023-11-19T14:17:09;14.10;99.90
16966;DHT22;8599;47.852;12.070;2023-11-19T14:19:37;14.00;99.90
16966;DHT22;8599;47.852;12.070;2023-11-19T14:22:06;14.10;99.90
16966;DHT22;8599;47.852;12.070;2023-11-19T14:24:34;14.20;99.90
16966;DHT22;8599;47.852;12.070;2023-11-19T14:27:01;14.10;99.90
16966;DHT22;8599;47.852;12.070;2023-11-19T14:29:28;14.10;99.90
16966;DHT22;8599;47.852;12.070;2023-11-19T14:31:55;13.90;99.90
16966;DHT22;8599;47.852;12.070;2023-11-19T14:34:22;13.90;99.90
16966;DHT22;8599;47.852;12.070;2023-11-19T14:36:50;13.80;99.90
16966;DHT22;8599;47.852;12.070;2023-11-19T14:39:18;13.80;99.90
16966;DHT22;8599;47.852;12.070;2023-11-19T14:41:45;13.70;99.90
16966;DHT22;8599;47.852;12.070;2023-11-19T14:44:12;13.70;99.90
16966;DHT22;8599;47.852;12.070;2023-11-19T14:46:38;13.60;99.90
16966;DHT22;8599;47.852;12.070;2023-11-19T14:49:05;13.70;99.90
16966;DHT22;8599;47.852;12.070;2023-11-19T14:51:35;13.70;99.90
16966;DHT22;8599;47.852;12.070;2023-11-19T14:54:02;13.60;99.90
16966;DHT22;8599;47.852;12.070;2023-11-19T14:56:31;13.70;99.90
16966;DHT22;8599;47.852;12.070;2023-11-19T14:58:57;13.60;99.90
16966;DHT22;8599;47.852;12.070;2023-11-19T15:01:25;13.70;99.90
16966;DHT22;8599;47.852;12.070;2023-11-19T15:03:54;13.70;99.90
16966;DHT22;8599;47.852;12.070;2023-11-19T15:06:23;13.70;99.90
16966;DHT22;8599;47.852;12.070;2023-11-19T15:08:51;13.70;99.90
16966;DHT22;8599;47.852;12.070;2023-11-19T15:11:18;13.60;99.90
16966;DHT22;8599;47.852;12.070;2023-11-19T15:13:46;13.50;99.90
16966;DHT22;8599;47.852;12.070;2023-11-19T15:16:13;13.60;99.90
16966;DHT22;8599;47.852;12.070;2023-11-19T15:18:40;13.70;99.90
16966;DHT22;8599;47.852;12.070;2023-11-19T15:21:07;13.50;99.90
16966;DHT22;8599;47.852;12.070;2023-11-19T15:23:34;13.50;99.90
16966;DHT22;8599;47.852;12.070;2023-11-19T15:26:02;13.40;99.90
16966;DHT22;8599;47.852;12.070;2023-11-19T15:28:29;13.30;99.90
16966;DHT22;8599;47.852;12.070;2023-11-19T15:30:57;13.20;99.90
16966;DHT22;8599;47.852;12.070;2023-11-19T15:33:24;13.10;99.90
16966;DHT22;8599;47.852;12.070;2023-11-19T15:35:51;13.00;99.90
16966;DHT22;8599;47.852;12.070;2023-11-19T15:38:18;13.00;99.90
16966;DHT22;8599;47.852;12.070;2023-11-19T15:40:45;13.20;99.90
16966;DHT22;8599;47.852;12.070;2023-11-19T15:43:12;13.20;99.90
16966;DHT22;8599;47.852;12.070;2023-11-19T15:45:39;13.10;99.90
16966;DHT22;8599;47.852;12.070;2023-11-19T15:48:07;12.90;99.90
16966;DHT22;8599;47.852;12.070;2023-11-19T15:50:34;12.80;99.90